createdAt,value
2019-04-02T00:03:22.469Z,2.78
2019-04-02T00:08:30.724Z,2.67
2019-04-02T00:13:38.954Z,2.39
2019-04-02T00:18:47.300Z,3.02
2019-04-02T00:23:55.494Z,2.48
2019-04-02T00:29:03.767Z,2.46
2019-04-02T00:34:11.956Z,2.67
2019-04-02T00:39:20.177Z,2.98
2019-04-02T00:44:28.355Z,2.99
2019-04-02T00:49:36.507Z,2.97
2019-04-02T00:54:44.623Z,2.69
2019-04-02T00:59:52.888Z,2.89
2019-04-02T01:05:01.136Z,3.14
2019-04-02T01:10:01.331Z,2.99
2019-04-02T01:15:09.562Z,3.09
2019-04-02T01:20:17.818Z,3.20
2019-04-02T01:25:27.319Z,3.08
2019-04-02T01:30:33.958Z,3.24
2019-04-02T01:35:42.956Z,3.13
2019-04-02T01:40:51.160Z,3.26
2019-04-02T01:45:59.981Z,3.10
2019-04-02T01:51:08.106Z,3.22
2019-04-02T01:56:16.422Z,2.99
2019-04-02T02:01:24.542Z,3.17
2019-04-02T02:06:32.717Z,3.60
2019-04-02T02:11:40.913Z,3.31
2019-04-02T02:16:49.166Z,3.34
2019-04-02T02:21:56.505Z,3.19
2019-04-02T02:27:05.391Z,3.28
2019-04-02T02:32:12.794Z,3.25
2019-04-02T02:37:21.030Z,3.53
2019-04-02T02:42:29.216Z,3.72
2019-04-02T02:47:37.450Z,3.55
2019-04-02T02:52:45.698Z,3.77
2019-04-02T02:57:55.039Z,3.53
2019-04-02T03:03:01.597Z,3.67
2019-04-02T03:08:09.953Z,3.67
2019-04-02T03:13:18.211Z,3.24
2019-04-02T03:18:26.488Z,3.04
2019-04-02T03:23:34.858Z,3.29
2019-04-02T03:28:42.995Z,3.09
2019-04-02T03:33:51.577Z,3.29
2019-04-02T03:39:00.726Z,3.37
2019-04-02T03:44:06.594Z,3.48
2019-04-02T03:49:15.265Z,3.14
2019-04-02T03:54:23.311Z,3.58
2019-04-02T03:59:31.531Z,3.35
2019-04-02T04:04:39.755Z,3.49
2019-04-02T04:09:48.278Z,3.74
2019-04-02T04:14:56.304Z,3.39
2019-04-02T04:20:04.499Z,3.64
2019-04-02T04:25:12.908Z,4.15
2019-04-02T04:30:21.291Z,3.59
2019-04-02T04:35:29.554Z,3.85
2019-04-02T04:40:37.877Z,3.66
2019-04-02T04:45:46.125Z,3.82
2019-04-02T04:50:54.554Z,4.29
2019-04-02T04:56:06.785Z,4.22
2019-04-02T05:01:07.466Z,3.96
2019-04-02T05:06:15.643Z,4.35
2019-04-02T05:11:23.900Z,4.45
2019-04-02T05:16:32.372Z,4.13
2019-04-02T05:21:40.566Z,3.85
2019-04-02T05:26:49.407Z,3.97
2019-04-02T05:31:51.646Z,4.09
2019-04-02T05:36:56.514Z,3.71
2019-04-02T05:42:04.819Z,3.71
2019-04-02T05:47:13.131Z,3.61
2019-04-02T05:52:21.225Z,3.67
2019-04-02T05:57:29.378Z,3.96
2019-04-02T06:02:37.735Z,4.37
2019-04-02T06:07:45.930Z,4.19
2019-04-02T06:12:54.349Z,4.48
2019-04-02T06:18:02.753Z,4.37
2019-04-02T06:23:12.592Z,4.29
2019-04-02T06:28:18.993Z,4.12
2019-04-02T06:33:27.244Z,4.21
2019-04-02T06:38:35.346Z,3.97
2019-04-02T06:43:43.553Z,4.01
2019-04-02T06:48:52.220Z,3.89
2019-04-02T06:54:00.583Z,4.04
2019-04-02T06:59:09.024Z,3.84
2019-04-02T07:04:17.869Z,3.81
2019-04-02T07:09:26.135Z,3.99
2019-04-02T07:14:34.513Z,3.95
2019-04-02T07:19:42.982Z,4.43
2019-04-02T07:24:51.486Z,3.97
2019-04-02T07:29:59.885Z,4.34
2019-04-02T07:35:08.434Z,4.14
2019-04-02T07:40:17.072Z,4.31
2019-04-02T07:45:25.730Z,4.59
2019-04-02T07:50:34.183Z,4.64
2019-04-02T07:55:42.635Z,4.54
2019-04-02T08:00:53.017Z,4.66
2019-04-02T08:06:00.235Z,4.44
2019-04-02T08:11:06.947Z,4.21
2019-04-02T08:16:15.718Z,4.82
2019-04-02T08:21:23.065Z,4.71
2019-04-02T08:26:33.031Z,5.15
2019-04-02T08:31:38.687Z,4.73
2019-04-02T08:36:47.357Z,4.93
2019-04-02T08:41:55.538Z,5.15
2019-04-02T08:47:03.941Z,5.19
2019-04-02T08:52:12.534Z,4.63
2019-04-02T08:57:21.143Z,4.99
2019-04-02T09:02:29.681Z,5.08
2019-04-02T09:07:37.987Z,4.82
2019-04-02T09:12:46.239Z,5.11
2019-04-02T09:17:54.725Z,5.26
2019-04-02T09:23:03.174Z,5.66
2019-04-02T09:28:16.811Z,5.52
2019-04-02T09:33:14.665Z,5.45
2019-04-02T09:38:22.883Z,5.67
2019-04-02T09:43:31.141Z,5.74
2019-04-02T09:48:39.435Z,5.55
2019-04-02T09:53:47.633Z,6.08
2019-04-02T09:58:55.961Z,6.12
2019-04-02T10:04:04.111Z,6.85
2019-04-02T10:09:12.210Z,6.98
2019-04-02T10:14:20.449Z,6.97
2019-04-02T10:19:28.575Z,7.30
2019-04-02T10:24:36.717Z,6.75
2019-04-02T10:29:44.930Z,7.09
2019-04-02T10:34:53.199Z,7.53
2019-04-02T10:40:01.421Z,7.20
2019-04-02T10:45:09.519Z,7.19
2019-04-02T10:50:17.738Z,6.85
2019-04-02T10:55:27.608Z,6.89
2019-04-02T11:00:33.882Z,6.57
2019-04-02T11:05:42.155Z,6.61
2019-04-02T11:10:50.286Z,6.78
2019-04-02T11:15:58.482Z,6.84
2019-04-02T11:21:07.757Z,7.25
2019-04-02T11:26:14.197Z,8.59
2019-04-02T11:31:22.568Z,8.22
2019-04-02T11:36:30.807Z,9.17
2019-04-02T11:41:38.971Z,9.35
2019-04-02T11:46:47.174Z,9.65
2019-04-02T11:51:55.498Z,9.86
2019-04-02T12:02:12.930Z,11.23
2019-04-02T12:07:21.140Z,10.46
2019-04-02T12:12:29.486Z,10.78
2019-04-02T12:17:37.779Z,10.91
2019-04-02T12:27:56.453Z,10.74
2019-04-02T12:33:01.913Z,10.92
2019-04-02T12:38:11.557Z,11.50
2019-04-02T12:58:41.866Z,11.57
2019-04-02T13:08:58.558Z,11.69
2019-04-02T13:14:06.697Z,12.00
2019-04-02T13:19:15.001Z,11.94
2019-04-02T13:24:26.551Z,12.11
2019-04-02T13:29:31.109Z,11.86
2019-04-02T13:34:39.294Z,12.44
2019-04-02T13:39:47.492Z,12.27
2019-04-02T13:50:04.154Z,12.44
2019-04-02T13:55:12.270Z,11.73
2019-04-02T14:00:20.527Z,11.84
2019-04-02T14:05:29.202Z,10.88
2019-04-02T14:10:36.479Z,10.26
2019-04-02T14:15:44.787Z,9.98
2019-04-02T14:20:52.940Z,10.53
2019-04-02T14:26:01.173Z,10.61
2019-04-02T14:31:09.385Z,10.67
2019-04-02T14:36:17.742Z,10.46
2019-04-02T14:41:25.813Z,10.56
2019-04-02T14:46:34.037Z,10.58
2019-04-02T14:51:42.253Z,10.10
2019-04-02T14:56:50.831Z,10.24
2019-04-02T15:02:00.514Z,9.94
2019-04-02T15:07:09.514Z,10.24
2019-04-02T15:12:18.644Z,9.63
2019-04-02T15:17:27.473Z,10.11
2019-04-02T15:22:35.756Z,10.01
2019-04-02T15:27:50.093Z,9.75
2019-04-02T15:32:54.731Z,10.27
2019-04-02T15:37:54.530Z,9.89
2019-04-02T15:43:02.871Z,9.80
2019-04-02T15:48:11.054Z,10.37
2019-04-02T15:53:19.355Z,10.21
2019-04-02T15:58:27.773Z,10.63
2019-04-02T16:03:36.072Z,10.25
2019-04-02T16:08:44.354Z,10.48
2019-04-02T16:13:52.629Z,10.19
2019-04-02T16:19:00.925Z,10.40
2019-04-02T16:24:09.602Z,10.30
2019-04-02T16:29:17.353Z,10.87
2019-04-02T16:34:37.595Z,10.30
2019-04-02T16:39:33.414Z,10.50
2019-04-02T16:44:41.658Z,10.33
2019-04-02T16:49:50.235Z,10.95
2019-04-02T16:54:58.326Z,10.49
2019-04-02T17:00:06.540Z,10.88
2019-04-02T17:05:14.733Z,10.66
2019-04-02T17:10:23.155Z,10.90
2019-04-02T17:15:31.362Z,10.54
2019-04-02T17:20:40.320Z,10.83
2019-04-02T17:25:47.358Z,10.78
2019-04-02T17:30:56.596Z,11.32
2019-04-02T17:36:04.709Z,10.84
2019-04-02T17:41:12.879Z,11.31
2019-04-02T17:46:21.126Z,10.89
2019-04-02T17:51:29.306Z,11.21
2019-04-02T17:56:37.517Z,10.62
2019-04-02T18:01:46.117Z,11.02
2019-04-02T18:06:54.977Z,10.93
2019-04-02T18:12:02.159Z,11.82
2019-04-02T18:17:08.786Z,11.82
2019-04-02T18:22:17.182Z,11.52
2019-04-02T18:27:25.505Z,11.26
2019-04-02T18:32:33.690Z,11.35
2019-04-02T18:37:41.921Z,11.36
2019-04-02T18:42:50.161Z,11.76
2019-04-02T18:47:58.728Z,11.54
2019-04-02T18:53:07.082Z,11.92
2019-04-02T18:58:15.082Z,11.67
2019-04-02T19:03:29.989Z,11.80
2019-04-02T19:08:25.487Z,11.65
2019-04-02T19:13:33.739Z,12.41
2019-04-02T19:18:41.923Z,12.81
2019-04-02T19:23:55.143Z,14.63
2019-04-02T19:28:51.073Z,14.92
2019-04-02T19:34:00.294Z,14.57
2019-04-02T19:39:08.518Z,15.01
2019-04-02T19:44:16.641Z,13.94
2019-04-02T19:49:24.834Z,14.37
2019-04-02T19:54:33.031Z,14.14
2019-04-02T19:59:41.237Z,13.50
2019-04-02T20:04:49.396Z,13.36
2019-04-02T20:09:57.625Z,13.96
2019-04-02T20:15:06.186Z,13.96
2019-04-02T20:20:16.709Z,13.71
2019-04-02T20:25:15.614Z,13.80
2019-04-02T20:30:23.393Z,13.70
2019-04-02T20:35:31.545Z,13.91
2019-04-02T20:40:40.034Z,14.65
2019-04-02T20:45:48.517Z,14.93
2019-04-02T20:50:56.709Z,14.73
2019-04-02T20:56:05.198Z,14.72
2019-04-02T21:01:14.779Z,14.64
2019-04-02T21:06:21.283Z,14.37
2019-04-02T21:11:29.477Z,14.31
2019-04-02T21:16:40.328Z,14.95
2019-04-02T21:21:48.154Z,14.05
2019-04-02T21:26:52.959Z,14.49
2019-04-02T21:32:01.233Z,14.94
2019-04-02T21:37:09.384Z,14.82
2019-04-02T21:42:17.553Z,14.89
2019-04-02T21:47:26.653Z,15.25
2019-04-02T21:52:35.718Z,15.09
2019-04-02T21:57:35.598Z,15.11
2019-04-02T22:02:43.999Z,15.13
2019-04-02T22:07:52.352Z,15.50
2019-04-02T22:13:00.658Z,14.90
2019-04-02T22:18:09.565Z,14.74
2019-04-02T22:23:17.842Z,15.67
2019-04-02T22:28:25.978Z,15.50
2019-04-02T22:33:37.372Z,15.70
2019-04-02T22:38:41.762Z,15.41
2019-04-02T22:43:49.927Z,15.45
2019-04-02T22:48:58.044Z,16.39
2019-04-02T22:54:06.441Z,15.75
2019-04-02T22:59:14.812Z,15.09
2019-04-02T23:04:22.903Z,15.34
2019-04-02T23:09:31.550Z,15.43
2019-04-02T23:14:38.465Z,16.53
2019-04-02T23:19:46.684Z,17.76
2019-04-02T23:24:54.998Z,18.03
2019-04-02T23:30:03.230Z,17.93
2019-04-02T23:35:11.490Z,17.42
2019-04-02T23:40:19.738Z,17.24
2019-04-02T23:45:27.926Z,17.26
2019-04-02T23:50:36.027Z,17.61
2019-04-02T23:55:44.351Z,17.86
